sensor_id;sensor_type;location;lat;lon;timestamp;temperature;humidity
10388;DHT22;5240;51.128;4.566;2022-12-11T00:02:18;1.90;99.90
10388;DHT22;5240;51.128;4.566;2022-12-11T00:04:46;1.90;99.90
10388;DHT22;5240;51.128;4.566;2022-12-11T00:07:13;1.90;99.90
10388;DHT22;5240;51.128;4.566;2022-12-11T00:09:40;2.00;99.90
10388;DHT22;5240;51.128;4.566;2022-12-11T00:12:08;2.00;99.90
10388;DHT22;5240;51.128;4.566;2022-12-11T00:14:35;1.90;99.90
10388;DHT22;5240;51.128;4.566;2022-12-11T00:17:02;2.00;99.90
10388;DHT22;5240;51.128;4.566;2022-12-11T00:19:29;2.00;99.90
10388;DHT22;5240;51.128;4.566;2022-12-11T00:21:56;2.00;99.90
10388;DHT22;5240;51.128;4.566;2022-12-11T00:24:23;2.00;99.90
10388;DHT22;5240;51.128;4.566;2022-12-11T00:26:50;2.00;99.90
10388;DHT22;5240;51.128;4.566;2022-12-11T00:29:19;2.00;99.90
10388;DHT22;5240;51.128;4.566;2022-12-11T00:31:46;2.00;99.90
10388;DHT22;5240;51.128;4.566;2022-12-11T00:34:13;2.00;99.90
10388;DHT22;5240;51.128;4.566;2022-12-11T00:36:40;2.00;99.90
10388;DHT22;5240;51.128;4.566;2022-12-11T00:39:07;2.00;99.90
10388;DHT22;5240;51.128;4.566;2022-12-11T00:41:34;2.00;99.90
10388;DHT22;5240;51.128;4.566;2022-12-11T00:44:01;2.00;99.90
10388;DHT22;5240;51.128;4.566;2022-12-11T00:46:30;2.00;99.90
10388;DHT22;5240;51.128;4.566;2022-12-11T00:48:57;2.00;99.90
10388;DHT22;5240;51.128;4.566;2022-12-11T00:51:24;2.00;99.90
10388;DHT22;5240;51.128;4.566;2022-12-11T00:53:51;2.00;99.90
10388;DHT22;5240;51.128;4.566;2022-12-11T00:56:20;2.00;99.90
10388;DHT22;5240;51.128;4.566;2022-12-11T00:58:49;2.00;99.90
10388;DHT22;5240;51.128;4.566;2022-12-11T01:01:18;2.10;99.90
10388;DHT22;5240;51.128;4.566;2022-12-11T01:03:46;2.00;99.90
10388;DHT22;5240;51.128;4.566;2022-12-11T01:06:15;2.10;99.90
10388;DHT22;5240;51.128;4.566;2022-12-11T01:08:43;2.00;99.90
10388;DHT22;5240;51.128;4.566;2022-12-11T01:11:14;2.10;99.90
10388;DHT22;5240;51.128;4.566;2022-12-11T01:13:40;2.10;99.90
10388;DHT22;5240;51.128;4.566;2022-12-11T01:16:09;2.10;99.90
10388;DHT22;5240;51.128;4.566;2022-12-11T01:18:36;2.20;99.90
10388;DHT22;5240;51.128;4.566;2022-12-11T01:21:09;2.20;99.90
10388;DHT22;5240;51.128;4.566;2022-12-11T01:23:37;2.10;99.90
10388;DHT22;5240;51.128;4.566;2022-12-11T01:26:06;2.10;99.90
10388;DHT22;5240;51.128;4.566;2022-12-11T01:28:33;2.10;99.90
10388;DHT22;5240;51.128;4.566;2022-12-11T01:31:00;2.10;99.90
10388;DHT22;5240;51.128;4.566;2022-12-11T01:33:27;2.10;99.90
10388;DHT22;5240;51.128;4.566;2022-12-11T01:35:54;2.10;99.90
10388;DHT22;5240;51.128;4.566;2022-12-11T01:38:23;2.10;99.90
10388;DHT22;5240;51.128;4.566;2022-12-11T01:40:50;2.10;99.90
10388;DHT22;5240;51.128;4.566;2022-12-11T01:43:18;2.10;99.90
10388;DHT22;5240;51.128;4.566;2022-12-11T01:45:46;2.10;99.90
10388;DHT22;5240;51.128;4.566;2022-12-11T01:48:16;2.10;99.90
10388;DHT22;5240;51.128;4.566;2022-12-11T01:50:48;2.10;99.90
10388;DHT22;5240;51.128;4.566;2022-12-11T01:53:20;2.10;99.90
10388;DHT22;5240;51.128;4.566;2022-12-11T01:55:51;2.10;99.90
10388;DHT22;5240;51.128;4.566;2022-12-11T01:58:20;2.10;99.90
10388;DHT22;5240;51.128;4.566;2022-12-11T02:00:47;2.10;99.90
10388;DHT22;5240;51.128;4.566;2022-12-11T02:03:15;2.20;99.90
10388;DHT22;5240;51.128;4.566;2022-12-11T02:05:42;2.20;99.90
10388;DHT22;5240;51.128;4.566;2022-12-11T02:08:09;2.20;99.90
10388;DHT22;5240;51.128;4.566;2022-12-11T02:10:54;2.10;99.90
10388;DHT22;5240;51.128;4.566;2022-12-11T02:13:29;2.20;99.90
10388;DHT22;5240;51.128;4.566;2022-12-11T02:16:02;2.20;99.90
10388;DHT22;5240;51.128;4.566;2022-12-11T02:18:35;2.20;99.90
10388;DHT22;5240;51.128;4.566;2022-12-11T02:21:08;2.20;99.90
10388;DHT22;5240;51.128;4.566;2022-12-11T02:24:00;2.20;99.90
10388;DHT22;5240;51.128;4.566;2022-12-11T02:29:23;2.10;99.90
10388;DHT22;5240;51.128;4.566;2022-12-11T02:31:54;2.20;99.90
10388;DHT22;5240;51.128;4.566;2022-12-11T02:34:29;2.20;99.90
10388;DHT22;5240;51.128;4.566;2022-12-11T02:37:02;2.20;99.90
10388;DHT22;5240;51.128;4.566;2022-12-11T02:39:31;2.20;99.90
10388;DHT22;5240;51.128;4.566;2022-12-11T02:42:00;2.20;99.90
10388;DHT22;5240;51.128;4.566;2022-12-11T02:44:32;2.20;99.90
10388;DHT22;5240;51.128;4.566;2022-12-11T02:47:00;2.10;99.90
10388;DHT22;5240;51.128;4.566;2022-12-11T02:49:30;2.20;99.90
10388;DHT22;5240;51.128;4.566;2022-12-11T02:52:00;2.20;99.90
10388;DHT22;5240;51.128;4.566;2022-12-11T02:54:31;2.20;99.90
10388;DHT22;5240;51.128;4.566;2022-12-11T02:57:02;2.20;99.90
10388;DHT22;5240;51.128;4.566;2022-12-11T02:59:35;2.20;99.90
10388;DHT22;5240;51.128;4.566;2022-12-11T03:02:03;2.20;99.90
10388;DHT22;5240;51.128;4.566;2022-12-11T03:04:32;2.20;99.90
10388;DHT22;5240;51.128;4.566;2022-12-11T03:07:03;2.20;99.90
10388;DHT22;5240;51.128;4.566;2022-12-11T03:09:36;2.20;99.90
10388;DHT22;5240;51.128;4.566;2022-12-11T03:12:05;2.20;99.90
10388;DHT22;5240;51.128;4.566;2022-12-11T03:14:33;2.20;99.90
10388;DHT22;5240;51.128;4.566;2022-12-11T03:17:07;2.20;99.90
10388;DHT22;5240;51.128;4.566;2022-12-11T03:19:41;2.20;99.90
10388;DHT22;5240;51.128;4.566;2022-12-11T03:22:11;2.20;99.90
10388;DHT22;5240;51.128;4.566;2022-12-11T03:24:44;2.20;99.90
10388;DHT22;5240;51.128;4.566;2022-12-11T03:27:16;2.20;99.90
10388;DHT22;5240;51.128;4.566;2022-12-11T03:29:51;2.30;99.90
10388;DHT22;5240;51.128;4.566;2022-12-11T03:32:23;2.30;99.90
10388;DHT22;5240;51.128;4.566;2022-12-11T03:34:56;2.30;99.90
10388;DHT22;5240;51.128;4.566;2022-12-11T03:37:27;2.30;99.90
10388;DHT22;5240;51.128;4.566;2022-12-11T03:39:58;2.30;99.90
10388;DHT22;5240;51.128;4.566;2022-12-11T03:42:28;2.30;99.90
10388;DHT22;5240;51.128;4.566;2022-12-11T03:44:58;2.30;99.90
10388;DHT22;5240;51.128;4.566;2022-12-11T03:47:26;2.30;99.90
10388;DHT22;5240;51.128;4.566;2022-12-11T03:49:55;2.30;99.90
10388;DHT22;5240;51.128;4.566;2022-12-11T03:52:25;2.30;99.90
10388;DHT22;5240;51.128;4.566;2022-12-11T03:54:54;2.40;99.90
10388;DHT22;5240;51.128;4.566;2022-12-11T03:57:26;2.40;99.90
10388;DHT22;5240;51.128;4.566;2022-12-11T03:59:56;2.40;99.90
10388;DHT22;5240;51.128;4.566;2022-12-11T04:02:23;2.40;99.90
10388;DHT22;5240;51.128;4.566;2022-12-11T04:04:50;2.40;99.90
10388;DHT22;5240;51.128;4.566;2022-12-11T04:07:17;2.30;99.90
10388;DHT22;5240;51.128;4.566;2022-12-11T04:09:44;2.30;99.90
10388;DHT22;5240;51.128;4.566;2022-12-11T04:12:11;2.40;99.90
10388;DHT22;5240;51.128;4.566;2022-12-11T04:14:39;2.40;99.90
10388;DHT22;5240;51.128;4.566;2022-12-11T04:17:25;2.40;99.90
10388;DHT22;5240;51.128;4.566;2022-12-11T04:20:10;2.50;99.90
10388;DHT22;5240;51.128;4.566;2022-12-11T04:22:54;2.50;99.90
10388;DHT22;5240;51.128;4.566;2022-12-11T04:25:38;2.40;99.90
10388;DHT22;5240;51.128;4.566;2022-12-11T04:28:05;2.40;99.90
10388;DHT22;5240;51.128;4.566;2022-12-11T04:30:32;2.30;99.90
10388;DHT22;5240;51.128;4.566;2022-12-11T04:33:01;2.30;99.90
10388;DHT22;5240;51.128;4.566;2022-12-11T04:35:28;2.40;99.90
10388;DHT22;5240;51.128;4.566;2022-12-11T04:37:55;2.40;99.90
10388;DHT22;5240;51.128;4.566;2022-12-11T04:40:22;2.30;99.90
10388;DHT22;5240;51.128;4.566;2022-12-11T04:42:49;2.30;99.90
10388;DHT22;5240;51.128;4.566;2022-12-11T04:45:17;2.30;99.90
10388;DHT22;5240;51.128;4.566;2022-12-11T04:47:44;2.30;99.90
10388;DHT22;5240;51.128;4.566;2022-12-11T04:50:14;2.20;99.90
10388;DHT22;5240;51.128;4.566;2022-12-11T04:52:41;2.30;99.90
10388;DHT22;5240;51.128;4.566;2022-12-11T04:55:09;2.30;99.90
10388;DHT22;5240;51.128;4.566;2022-12-11T04:57:36;2.30;99.90
10388;DHT22;5240;51.128;4.566;2022-12-11T05:00:06;2.30;99.90
10388;DHT22;5240;51.128;4.566;2022-12-11T05:02:34;2.20;99.90
10388;DHT22;5240;51.128;4.566;2022-12-11T05:05:02;2.20;99.90
10388;DHT22;5240;51.128;4.566;2022-12-11T05:07:31;2.20;99.90
10388;DHT22;5240;51.128;4.566;2022-12-11T05:09:58;2.20;99.90
10388;DHT22;5240;51.128;4.566;2022-12-11T05:12:25;2.20;99.90
10388;DHT22;5240;51.128;4.566;2022-12-11T05:14:52;2.20;99.90
10388;DHT22;5240;51.128;4.566;2022-12-11T05:17:19;2.20;99.90
10388;DHT22;5240;51.128;4.566;2022-12-11T05:19:47;2.20;99.90
10388;DHT22;5240;51.128;4.566;2022-12-11T05:22:14;2.20;99.90
10388;DHT22;5240;51.128;4.566;2022-12-11T05:24:43;2.10;99.90
10388;DHT22;5240;51.128;4.566;2022-12-11T05:27:10;2.20;99.90
10388;DHT22;5240;51.128;4.566;2022-12-11T05:29:38;2.10;99.90
10388;DHT22;5240;51.128;4.566;2022-12-11T05:32:05;2.10;99.90
10388;DHT22;5240;51.128;4.566;2022-12-11T05:34:32;2.20;99.90
10388;DHT22;5240;51.128;4.566;2022-12-11T05:36:59;2.10;99.90
10388;DHT22;5240;51.128;4.566;2022-12-11T05:39:26;2.10;99.90
10388;DHT22;5240;51.128;4.566;2022-12-11T05:41:54;2.10;99.90
10388;DHT22;5240;51.128;4.566;2022-12-11T05:44:21;2.10;99.90
10388;DHT22;5240;51.128;4.566;2022-12-11T05:46:48;2.10;99.90
10388;DHT22;5240;51.128;4.566;2022-12-11T05:49:15;2.10;99.90
10388;DHT22;5240;51.128;4.566;2022-12-11T05:51:42;2.10;99.90
10388;DHT22;5240;51.128;4.566;2022-12-11T05:54:09;2.10;99.90
10388;DHT22;5240;51.128;4.566;2022-12-11T05:56:37;2.10;99.90
10388;DHT22;5240;51.128;4.566;2022-12-11T05:59:06;2.10;99.90
10388;DHT22;5240;51.128;4.566;2022-12-11T06:01:34;2.10;99.90
10388;DHT22;5240;51.128;4.566;2022-12-11T06:04:03;2.10;99.90
10388;DHT22;5240;51.128;4.566;2022-12-11T06:06:31;2.10;99.90
10388;DHT22;5240;51.128;4.566;2022-12-11T06:08:59;2.20;99.90
10388;DHT22;5240;51.128;4.566;2022-12-11T06:11:28;2.20;99.90
10388;DHT22;5240;51.128;4.566;2022-12-11T06:13:55;2.20;99.90
10388;DHT22;5240;51.128;4.566;2022-12-11T06:16:24;2.20;99.90
10388;DHT22;5240;51.128;4.566;2022-12-11T06:18:51;2.20;99.90
10388;DHT22;5240;51.128;4.566;2022-12-11T06:21:21;2.20;99.90
10388;DHT22;5240;51.128;4.566;2022-12-11T06:23:49;2.20;99.90
10388;DHT22;5240;51.128;4.566;2022-12-11T06:26:17;2.20;99.90
10388;DHT22;5240;51.128;4.566;2022-12-11T06:28:45;2.10;99.90
10388;DHT22;5240;51.128;4.566;2022-12-11T06:31:13;2.10;99.90
10388;DHT22;5240;51.128;4.566;2022-12-11T06:33:42;2.10;99.90
10388;DHT22;5240;51.128;4.566;2022-12-11T06:36:11;2.10;99.90
10388;DHT22;5240;51.128;4.566;2022-12-11T06:38:39;2.10;99.90
10388;DHT22;5240;51.128;4.566;2022-12-11T06:41:07;2.00;99.90
10388;DHT22;5240;51.128;4.566;2022-12-11T06:43:36;2.00;99.90
10388;DHT22;5240;51.128;4.566;2022-12-11T06:46:04;2.00;99.90
10388;DHT22;5240;51.128;4.566;2022-12-11T06:48:31;2.00;99.90
10388;DHT22;5240;51.128;4.566;2022-12-11T06:51:04;2.00;99.90
10388;DHT22;5240;51.128;4.566;2022-12-11T06:53:32;2.00;99.90
10388;DHT22;5240;51.128;4.566;2022-12-11T06:56:01;1.90;99.90
10388;DHT22;5240;51.128;4.566;2022-12-11T06:58:28;2.00;99.90
10388;DHT22;5240;51.128;4.566;2022-12-11T07:00:55;2.00;99.90
10388;DHT22;5240;51.128;4.566;2022-12-11T07:03:22;2.00;99.90
10388;DHT22;5240;51.128;4.566;2022-12-11T07:05:49;2.00;99.90
10388;DHT22;5240;51.128;4.566;2022-12-11T07:08:18;1.90;99.90
10388;DHT22;5240;51.128;4.566;2022-12-11T07:10:45;1.90;99.90
10388;DHT22;5240;51.128;4.566;2022-12-11T07:13:12;2.00;99.90
10388;DHT22;5240;51.128;4.566;2022-12-11T07:15:39;2.00;99.90
10388;DHT22;5240;51.128;4.566;2022-12-11T07:18:06;2.00;99.90
10388;DHT22;5240;51.128;4.566;2022-12-11T07:20:33;2.00;99.90
10388;DHT22;5240;51.128;4.566;2022-12-11T07:23:00;2.00;99.90
10388;DHT22;5240;51.128;4.566;2022-12-11T07:25:29;2.00;99.90
10388;DHT22;5240;51.128;4.566;2022-12-11T07:27:56;2.10;99.90
10388;DHT22;5240;51.128;4.566;2022-12-11T07:30:23;2.00;99.90
10388;DHT22;5240;51.128;4.566;2022-12-11T07:32:50;2.00;99.90
10388;DHT22;5240;51.128;4.566;2022-12-11T07:35:17;2.10;99.90
10388;DHT22;5240;51.128;4.566;2022-12-11T07:37:44;2.10;99.90
10388;DHT22;5240;51.128;4.566;2022-12-11T07:40:11;2.00;99.90
10388;DHT22;5240;51.128;4.566;2022-12-11T07:42:40;2.00;99.90
10388;DHT22;5240;51.128;4.566;2022-12-11T07:45:09;2.00;99.90
10388;DHT22;5240;51.128;4.566;2022-12-11T07:47:36;2.00;99.90
10388;DHT22;5240;51.128;4.566;2022-12-11T07:50:04;2.00;99.90
10388;DHT22;5240;51.128;4.566;2022-12-11T07:52:32;2.10;99.90
10388;DHT22;5240;51.128;4.566;2022-12-11T07:54:59;2.00;99.90
10388;DHT22;5240;51.128;4.566;2022-12-11T07:57:26;2.00;99.90
10388;DHT22;5240;51.128;4.566;2022-12-11T07:59:55;2.00;99.90
10388;DHT22;5240;51.128;4.566;2022-12-11T08:02:22;1.90;99.90
10388;DHT22;5240;51.128;4.566;2022-12-11T08:04:49;1.90;99.90
10388;DHT22;5240;51.128;4.566;2022-12-11T08:07:16;1.90;99.90
10388;DHT22;5240;51.128;4.566;2022-12-11T08:09:43;1.90;99.90
10388;DHT22;5240;51.128;4.566;2022-12-11T08:12:10;1.90;99.90
10388;DHT22;5240;51.128;4.566;2022-12-11T08:14:38;1.90;99.90
10388;DHT22;5240;51.128;4.566;2022-12-11T08:17:06;2.00;99.90
10388;DHT22;5240;51.128;4.566;2022-12-11T08:19:33;2.00;99.90
10388;DHT22;5240;51.128;4.566;2022-12-11T08:22:00;2.00;99.90
10388;DHT22;5240;51.128;4.566;2022-12-11T08:24:27;2.00;99.90
10388;DHT22;5240;51.128;4.566;2022-12-11T08:26:54;2.00;99.90
10388;DHT22;5240;51.128;4.566;2022-12-11T08:29:21;1.90;99.90
10388;DHT22;5240;51.128;4.566;2022-12-11T08:31:48;2.00;99.90
10388;DHT22;5240;51.128;4.566;2022-12-11T08:34:17;2.00;99.90
10388;DHT22;5240;51.128;4.566;2022-12-11T08:36:44;2.00;99.90
10388;DHT22;5240;51.128;4.566;2022-12-11T08:39:11;2.00;99.90
10388;DHT22;5240;51.128;4.566;2022-12-11T08:41:38;2.00;99.90
10388;DHT22;5240;51.128;4.566;2022-12-11T08:44:10;2.00;99.90
10388;DHT22;5240;51.128;4.566;2022-12-11T08:46:37;2.00;99.90
10388;DHT22;5240;51.128;4.566;2022-12-11T08:49:04;1.90;99.90
10388;DHT22;5240;51.128;4.566;2022-12-11T08:51:33;1.90;99.90
10388;DHT22;5240;51.128;4.566;2022-12-11T08:54:00;1.90;99.90
10388;DHT22;5240;51.128;4.566;2022-12-11T08:56:28;2.00;99.90
10388;DHT22;5240;51.128;4.566;2022-12-11T08:58:58;2.00;99.90
10388;DHT22;5240;51.128;4.566;2022-12-11T09:01:26;2.10;99.90
10388;DHT22;5240;51.128;4.566;2022-12-11T09:03:54;2.00;99.90
10388;DHT22;5240;51.128;4.566;2022-12-11T09:06:24;2.10;99.90
10388;DHT22;5240;51.128;4.566;2022-12-11T09:08:53;2.10;99.90
10388;DHT22;5240;51.128;4.566;2022-12-11T09:11:23;2.10;99.90
10388;DHT22;5240;51.128;4.566;2022-12-11T09:13:50;2.10;99.90
10388;DHT22;5240;51.128;4.566;2022-12-11T09:16:19;2.10;99.90
10388;DHT22;5240;51.128;4.566;2022-12-11T09:18:48;2.10;99.90
10388;DHT22;5240;51.128;4.566;2022-12-11T09:21:19;2.10;99.90
10388;DHT22;5240;51.128;4.566;2022-12-11T09:23:47;2.10;99.90
10388;DHT22;5240;51.128;4.566;2022-12-11T09:26:17;2.10;99.90
10388;DHT22;5240;51.128;4.566;2022-12-11T09:28:45;2.10;99.90
10388;DHT22;5240;51.128;4.566;2022-12-11T09:31:14;2.10;99.90
10388;DHT22;5240;51.128;4.566;2022-12-11T09:33:42;2.10;99.90
10388;DHT22;5240;51.128;4.566;2022-12-11T09:36:09;2.20;99.90
10388;DHT22;5240;51.128;4.566;2022-12-11T09:38:37;2.20;99.90
10388;DHT22;5240;51.128;4.566;2022-12-11T09:44:18;2.20;99.90
10388;DHT22;5240;51.128;4.566;2022-12-11T09:46:46;2.20;99.90
10388;DHT22;5240;51.128;4.566;2022-12-11T09:49:24;2.20;99.90
10388;DHT22;5240;51.128;4.566;2022-12-11T09:51:58;2.10;99.90
10388;DHT22;5240;51.128;4.566;2022-12-11T09:54:26;2.20;99.90
10388;DHT22;5240;51.128;4.566;2022-12-11T09:57:01;2.10;99.90
10388;DHT22;5240;51.128;4.566;2022-12-11T09:59:38;2.10;99.90
10388;DHT22;5240;51.128;4.566;2022-12-11T10:02:24;2.10;99.90
10388;DHT22;5240;51.128;4.566;2022-12-11T10:05:01;2.10;99.90
10388;DHT22;5240;51.128;4.566;2022-12-11T10:07:35;2.00;99.90
10388;DHT22;5240;51.128;4.566;2022-12-11T10:10:10;2.00;99.90
10388;DHT22;5240;51.128;4.566;2022-12-11T10:12:46;2.00;99.90
10388;DHT22;5240;51.128;4.566;2022-12-11T10:15:28;2.00;99.90
10388;DHT22;5240;51.128;4.566;2022-12-11T10:17:58;2.00;99.90
10388;DHT22;5240;51.128;4.566;2022-12-11T10:20:29;2.00;99.90
10388;DHT22;5240;51.128;4.566;2022-12-11T10:23:00;2.10;99.90
10388;DHT22;5240;51.128;4.566;2022-12-11T10:25:30;2.10;99.90
10388;DHT22;5240;51.128;4.566;2022-12-11T10:27:59;2.10;99.90
10388;DHT22;5240;51.128;4.566;2022-12-11T10:30:37;2.10;99.90
10388;DHT22;5240;51.128;4.566;2022-12-11T10:33:15;2.10;99.90
10388;DHT22;5240;51.128;4.566;2022-12-11T10:35:47;2.10;99.90
10388;DHT22;5240;51.128;4.566;2022-12-11T10:38:16;2.20;99.90
10388;DHT22;5240;51.128;4.566;2022-12-11T10:40:48;2.10;99.90
10388;DHT22;5240;51.128;4.566;2022-12-11T10:43:16;2.10;99.90
10388;DHT22;5240;51.128;4.566;2022-12-11T10:45:51;2.10;99.90
10388;DHT22;5240;51.128;4.566;2022-12-11T10:48:18;2.10;99.90
10388;DHT22;5240;51.128;4.566;2022-12-11T10:50:57;2.10;99.90
10388;DHT22;5240;51.128;4.566;2022-12-11T10:53:25;2.10;99.90
10388;DHT22;5240;51.128;4.566;2022-12-11T10:55:52;2.20;99.90
10388;DHT22;5240;51.128;4.566;2022-12-11T10:58:22;2.10;99.90
10388;DHT22;5240;51.128;4.566;2022-12-11T11:01:06;2.10;99.90
10388;DHT22;5240;51.128;4.566;2022-12-11T11:03:37;2.10;99.90
10388;DHT22;5240;51.128;4.566;2022-12-11T11:06:15;2.10;99.90
10388;DHT22;5240;51.128;4.566;2022-12-11T11:08:44;2.10;99.90
10388;DHT22;5240;51.128;4.566;2022-12-11T11:11:27;2.20;99.90
10388;DHT22;5240;51.128;4.566;2022-12-11T11:14:06;2.20;99.90
10388;DHT22;5240;51.128;4.566;2022-12-11T11:16:39;2.20;99.90
10388;DHT22;5240;51.128;4.566;2022-12-11T11:19:16;2.20;99.90
10388;DHT22;5240;51.128;4.566;2022-12-11T11:21:48;2.20;99.90
10388;DHT22;5240;51.128;4.566;2022-12-11T11:24:25;2.20;99.90
10388;DHT22;5240;51.128;4.566;2022-12-11T11:26:53;2.20;99.90
10388;DHT22;5240;51.128;4.566;2022-12-11T11:29:26;2.20;99.90
10388;DHT22;5240;51.128;4.566;2022-12-11T11:31:56;2.30;99.90
10388;DHT22;5240;51.128;4.566;2022-12-11T11:34:24;2.30;99.90
10388;DHT22;5240;51.128;4.566;2022-12-11T11:36:57;2.30;99.90
10388;DHT22;5240;51.128;4.566;2022-12-11T11:39:33;2.30;99.90
10388;DHT22;5240;51.128;4.566;2022-12-11T11:42:07;2.30;99.90
10388;DHT22;5240;51.128;4.566;2022-12-11T11:44:40;2.30;99.90
10388;DHT22;5240;51.128;4.566;2022-12-11T11:47:15;2.40;99.90
10388;DHT22;5240;51.128;4.566;2022-12-11T11:49:49;2.50;99.90
10388;DHT22;5240;51.128;4.566;2022-12-11T11:52:25;2.60;99.90
10388;DHT22;5240;51.128;4.566;2022-12-11T11:55:02;2.70;99.90
10388;DHT22;5240;51.128;4.566;2022-12-11T11:57:37;2.90;99.90
10388;DHT22;5240;51.128;4.566;2022-12-11T12:00:18;2.90;99.90
10388;DHT22;5240;51.128;4.566;2022-12-11T12:02:47;2.90;99.90
10388;DHT22;5240;51.128;4.566;2022-12-11T12:05:22;3.00;99.90
10388;DHT22;5240;51.128;4.566;2022-12-11T12:08:01;3.10;99.90
10388;DHT22;5240;51.128;4.566;2022-12-11T12:10:36;3.10;99.90
10388;DHT22;5240;51.128;4.566;2022-12-11T12:13:13;3.00;99.90
10388;DHT22;5240;51.128;4.566;2022-12-11T12:15:49;3.00;99.90
10388;DHT22;5240;51.128;4.566;2022-12-11T12:18:27;3.10;99.90
10388;DHT22;5240;51.128;4.566;2022-12-11T12:21:04;3.00;99.90
10388;DHT22;5240;51.128;4.566;2022-12-11T12:23:48;3.00;99.90
10388;DHT22;5240;51.128;4.566;2022-12-11T12:26:26;3.10;99.90
10388;DHT22;5240;51.128;4.566;2022-12-11T12:29:03;3.10;99.90
10388;DHT22;5240;51.128;4.566;2022-12-11T12:31:44;3.20;99.90
10388;DHT22;5240;51.128;4.566;2022-12-11T12:34:23;3.20;99.90
10388;DHT22;5240;51.128;4.566;2022-12-11T12:36:58;3.10;99.90
10388;DHT22;5240;51.128;4.566;2022-12-11T12:39:38;3.10;99.90
10388;DHT22;5240;51.128;4.566;2022-12-11T12:42:13;3.10;99.90
10388;DHT22;5240;51.128;4.566;2022-12-11T12:44:51;3.20;99.90
10388;DHT22;5240;51.128;4.566;2022-12-11T12:47:21;3.30;99.90
10388;DHT22;5240;51.128;4.566;2022-12-11T12:49:52;3.40;99.90
10388;DHT22;5240;51.128;4.566;2022-12-11T12:52:31;3.40;99.90
10388;DHT22;5240;51.128;4.566;2022-12-11T12:55:02;3.40;99.90
10388;DHT22;5240;51.128;4.566;2022-12-11T12:57:43;3.40;99.90
10388;DHT22;5240;51.128;4.566;2022-12-11T13:00:11;3.30;99.90
10388;DHT22;5240;51.128;4.566;2022-12-11T13:02:47;3.20;99.90
10388;DHT22;5240;51.128;4.566;2022-12-11T13:05:21;3.10;99.90
10388;DHT22;5240;51.128;4.566;2022-12-11T13:07:51;3.10;99.90
10388;DHT22;5240;51.128;4.566;2022-12-11T13:10:25;3.20;99.90
10388;DHT22;5240;51.128;4.566;2022-12-11T13:12:53;3.20;99.90
10388;DHT22;5240;51.128;4.566;2022-12-11T13:15:41;3.20;99.90
10388;DHT22;5240;51.128;4.566;2022-12-11T13:18:32;3.30;99.90
10388;DHT22;5240;51.128;4.566;2022-12-11T13:21:01;3.20;99.90
10388;DHT22;5240;51.128;4.566;2022-12-11T13:23:30;3.20;99.90
10388;DHT22;5240;51.128;4.566;2022-12-11T13:25:59;3.10;99.90
10388;DHT22;5240;51.128;4.566;2022-12-11T13:28:33;3.10;99.90
10388;DHT22;5240;51.128;4.566;2022-12-11T13:31:33;3.20;99.90
10388;DHT22;5240;51.128;4.566;2022-12-11T13:34:14;3.20;99.90
10388;DHT22;5240;51.128;4.566;2022-12-11T13:36:47;3.10;99.90
10388;DHT22;5240;51.128;4.566;2022-12-11T13:39:17;3.00;99.90
10388;DHT22;5240;51.128;4.566;2022-12-11T13:41:47;2.90;99.90
10388;DHT22;5240;51.128;4.566;2022-12-11T13:44:20;2.90;99.90
10388;DHT22;5240;51.128;4.566;2022-12-11T13:46:49;2.90;99.90
10388;DHT22;5240;51.128;4.566;2022-12-11T13:49:23;2.90;99.90
10388;DHT22;5240;51.128;4.566;2022-12-11T13:51:54;2.80;99.90
10388;DHT22;5240;51.128;4.566;2022-12-11T13:54:21;2.90;99.90
10388;DHT22;5240;51.128;4.566;2022-12-11T13:57:00;2.80;99.90
10388;DHT22;5240;51.128;4.566;2022-12-11T13:59:30;2.90;99.90
10388;DHT22;5240;51.128;4.566;2022-12-11T14:02:03;2.90;99.90
10388;DHT22;5240;51.128;4.566;2022-12-11T14:04:32;2.80;99.90
10388;DHT22;5240;51.128;4.566;2022-12-11T14:07:04;2.80;99.90
10388;DHT22;5240;51.128;4.566;2022-12-11T14:09:32;2.80;99.90
10388;DHT22;5240;51.128;4.566;2022-12-11T14:11:59;2.90;99.90
10388;DHT22;5240;51.128;4.566;2022-12-11T14:14:34;2.90;99.90
10388;DHT22;5240;51.128;4.566;2022-12-11T14:17:05;2.80;99.90
10388;DHT22;5240;51.128;4.566;2022-12-11T14:19:32;2.80;99.90
10388;DHT22;5240;51.128;4.566;2022-12-11T14:22:03;2.90;99.90
10388;DHT22;5240;51.128;4.566;2022-12-11T14:24:32;2.80;99.90
10388;DHT22;5240;51.128;4.566;2022-12-11T14:26:59;2.80;99.90
10388;DHT22;5240;51.128;4.566;2022-12-11T14:29:27;2.80;99.90
10388;DHT22;5240;51.128;4.566;2022-12-11T14:31:58;2.90;99.90
10388;DHT22;5240;51.128;4.566;2022-12-11T14:34:31;2.90;99.90
10388;DHT22;5240;51.128;4.566;2022-12-11T14:37:02;2.90;99.90
10388;DHT22;5240;51.128;4.566;2022-12-11T14:39:33;2.90;99.90
10388;DHT22;5240;51.128;4.566;2022-12-11T14:42:03;2.80;99.90
10388;DHT22;5240;51.128;4.566;2022-12-11T14:44:36;2.80;99.90
10388;DHT22;5240;51.128;4.566;2022-12-11T14:47:09;2.80;99.90
10388;DHT22;5240;51.128;4.566;2022-12-11T14:49:44;2.80;99.90
10388;DHT22;5240;51.128;4.566;2022-12-11T14:52:16;2.80;99.90
10388;DHT22;5240;51.128;4.566;2022-12-11T14:54:46;2.80;99.90
10388;DHT22;5240;51.128;4.566;2022-12-11T14:57:19;2.80;99.90
10388;DHT22;5240;51.128;4.566;2022-12-11T14:59:48;2.80;99.90
10388;DHT22;5240;51.128;4.566;2022-12-11T15:02:23;2.70;99.90
10388;DHT22;5240;51.128;4.566;2022-12-11T15:05:04;2.70;99.90
10388;DHT22;5240;51.128;4.566;2022-12-11T15:07:33;2.80;99.90
10388;DHT22;5240;51.128;4.566;2022-12-11T15:10:02;2.80;99.90
10388;DHT22;5240;51.128;4.566;2022-12-11T15:12:30;2.80;99.90
10388;DHT22;5240;51.128;4.566;2022-12-11T15:14:59;2.70;99.90
10388;DHT22;5240;51.128;4.566;2022-12-11T15:17:27;2.80;99.90
10388;DHT22;5240;51.128;4.566;2022-12-11T15:20:06;2.80;99.90
10388;DHT22;5240;51.128;4.566;2022-12-11T15:22:35;2.80;99.90
10388;DHT22;5240;51.128;4.566;2022-12-11T15:25:03;2.80;99.90
10388;DHT22;5240;51.128;4.566;2022-12-11T15:27:33;2.80;99.90
10388;DHT22;5240;51.128;4.566;2022-12-11T15:30:02;2.70;99.90
10388;DHT22;5240;51.128;4.566;2022-12-11T15:32:40;2.70;99.90
10388;DHT22;5240;51.128;4.566;2022-12-11T15:35:22;2.70;99.90
10388;DHT22;5240;51.128;4.566;2022-12-11T15:37:53;2.70;99.90
10388;DHT22;5240;51.128;4.566;2022-12-11T15:40:20;2.60;99.90
10388;DHT22;5240;51.128;4.566;2022-12-11T15:42:47;2.60;99.90
10388;DHT22;5240;51.128;4.566;2022-12-11T15:45:16;2.60;99.90
10388;DHT22;5240;51.128;4.566;2022-12-11T15:47:45;2.60;99.90
10388;DHT22;5240;51.128;4.566;2022-12-11T15:50:15;2.50;99.90
10388;DHT22;5240;51.128;4.566;2022-12-11T15:52:42;2.50;99.90
10388;DHT22;5240;51.128;4.566;2022-12-11T15:55:12;2.50;99.90
10388;DHT22;5240;51.128;4.566;2022-12-11T15:57:43;2.40;99.90
10388;DHT22;5240;51.128;4.566;2022-12-11T16:00:13;2.50;99.90
10388;DHT22;5240;51.128;4.566;2022-12-11T16:02:40;2.40;99.90
10388;DHT22;5240;51.128;4.566;2022-12-11T16:05:08;2.40;99.90
10388;DHT22;5240;51.128;4.566;2022-12-11T16:07:35;2.40;99.90
10388;DHT22;5240;51.128;4.566;2022-12-11T16:10:02;2.40;99.90
10388;DHT22;5240;51.128;4.566;2022-12-11T16:12:31;2.40;99.90
10388;DHT22;5240;51.128;4.566;2022-12-11T16:14:58;2.30;99.90
10388;DHT22;5240;51.128;4.566;2022-12-11T16:17:25;2.30;99.90
10388;DHT22;5240;51.128;4.566;2022-12-11T16:19:52;2.30;99.90
10388;DHT22;5240;51.128;4.566;2022-12-11T16:22:19;2.30;99.90
10388;DHT22;5240;51.128;4.566;2022-12-11T16:24:47;2.20;99.90
10388;DHT22;5240;51.128;4.566;2022-12-11T16:27:14;2.30;99.90
10388;DHT22;5240;51.128;4.566;2022-12-11T16:29:42;2.20;99.90